Gazi — 9HA2542 — position and weather

sailwx.info

Track history (hours):
 
Tides and Currents Weather Stations Pressure Air Temp Water Temp Dewpoint Dewpoint Depression Visibility Wind Speed Wind Dir Waves Ship Positions

Gazi

Last reported at 2014-Dec-21 12:33 UTC. Time now 2014-Dec-21 13:30 UTC.
Position N 35°52' E 024°30'.

Length 146 m; draft 6 m.

Type: Ship. MMSI: 248841000.

Date/timePositionNaut miles runAvg speedWind from/ knotsBaromVisibWave heightAir tempDewpointWater temp
2014-Dec-21 12:33N 35°52' E 024°30'1110.5
2014-Dec-21 11:33N 35°51' E 024°43'1010.5
2014-Dec-21 10:33N 35°49' E 024°55'1010.5
2014-Dec-21 09:34N 35°47' E 025°08'1110.5
2014-Dec-21 08:33N 35°45' E 025°21'1110.7
2014-Dec-21 07:33N 35°42' E 025°34'34211.6
2014-Dec-20 02:12N 34°35' E 032°23'1012.0
2014-Dec-20 01:22N 34°33' E 032°35'1011.9
2014-Dec-20 00:33N 34°32' E 032°46'1111.5
2014-Dec-19 23:34N 34°30' E 033°00'1211.8
2014-Dec-19 22:33N 34°29' E 033°15'1211.8
2014-Dec-19 21:33N 34°28' E 033°29'  
2014-Dec-15 12:30N 34°30' E 033°30'1011.1
2014-Dec-15 11:34N 34°30' E 033°17'1111.2
2014-Dec-15 10:33N 34°30' E 033°04'1111.2
2014-Dec-15 09:33N 34°32' E 032°50'1111.3
2014-Dec-15 08:33N 34°36' E 032°37'1111.3
2014-Dec-15 07:33N 34°39' E 032°24'31410.7
2014-Dec-14 02:12N 36°45' E 026°29'710.9
2014-Dec-14 01:32N 36°50' E 026°22'1110.9
2014-Dec-14 00:29N 36°57' E 026°12'1011.1
2014-Dec-13 23:33N 37°04' E 026°02'1111.2
2014-Dec-13 22:33N 37°12' E 025°52'1110.9
2014-Dec-13 21:33N 37°14' E 025°39'1110.7
2014-Dec-13 20:33N 37°17' E 025°26'1010.3
2014-Dec-13 19:33N 37°20' E 025°13'1110.6
2014-Dec-13 18:33N 37°27' E 025°04'1110.6
2014-Dec-13 17:30N 37°35' E 024°54'1010.4
2014-Dec-13 16:33N 37°41' E 024°44'1010.5
2014-Dec-13 15:33N 37°46' E 024°33'2310.8
2014-Dec-13 13:27N 38°00' E 024°10'1010.9
2014-Dec-13 12:31N 38°10' E 024°08'  
Track history (hours):
 
Tides and Currents Weather Stations Pressure Air Temp Water Temp Dewpoint Dewpoint Depression Visibility Wind Speed Wind Dir Waves Ship Positions

Gazi

Last reported at 2014-Dec-21 12:33 UTC. Time now 2014-Dec-21 13:30 UTC.
Position N 35°52' E 024°30'.

Length 146 m; draft 6 m.

Type: Ship. MMSI: 248841000.

Date/timePositionNaut miles runAvg speedWind from/ knotsBaromVisibWave heightAir tempDewpointWater temp
2014-Dec-21 12:33N 35°52' E 024°30'1110.5
2014-Dec-21 11:33N 35°51' E 024°43'1010.5
2014-Dec-21 10:33N 35°49' E 024°55'1010.5
2014-Dec-21 09:34N 35°47' E 025°08'1110.5
2014-Dec-21 08:33N 35°45' E 025°21'1110.7
2014-Dec-21 07:33N 35°42' E 025°34'34211.6
2014-Dec-20 02:12N 34°35' E 032°23'1012.0
2014-Dec-20 01:22N 34°33' E 032°35'1011.9
2014-Dec-20 00:33N 34°32' E 032°46'1111.5
2014-Dec-19 23:34N 34°30' E 033°00'1211.8
2014-Dec-19 22:33N 34°29' E 033°15'1211.8
2014-Dec-19 21:33N 34°28' E 033°29'  
2014-Dec-15 12:30N 34°30' E 033°30'1011.1
2014-Dec-15 11:34N 34°30' E 033°17'1111.2
2014-Dec-15 10:33N 34°30' E 033°04'1111.2
2014-Dec-15 09:33N 34°32' E 032°50'1111.3
2014-Dec-15 08:33N 34°36' E 032°37'1111.3
2014-Dec-15 07:33N 34°39' E 032°24'31410.7
2014-Dec-14 02:12N 36°45' E 026°29'710.9
2014-Dec-14 01:32N 36°50' E 026°22'1110.9
2014-Dec-14 00:29N 36°57' E 026°12'1011.1
2014-Dec-13 23:33N 37°04' E 026°02'1111.2
2014-Dec-13 22:33N 37°12' E 025°52'1110.9
2014-Dec-13 21:33N 37°14' E 025°39'1110.7
2014-Dec-13 20:33N 37°17' E 025°26'1010.3
2014-Dec-13 19:33N 37°20' E 025°13'1110.6
2014-Dec-13 18:33N 37°27' E 025°04'1110.6
2014-Dec-13 17:30N 37°35' E 024°54'1010.4
2014-Dec-13 16:33N 37°41' E 024°44'1010.5
2014-Dec-13 15:33N 37°46' E 024°33'2310.8
2014-Dec-13 13:27N 38°00' E 024°10'1010.9
2014-Dec-13 12:31N 38°10' E 024°08'  

Dump ship's entire track history